KHRL

Valley International Airport

Harlingen, Texas, USA
METAR KHRL 141252Z 30012KT 10SM CLR 09/M03 A3012 RMK AO2 SLP197 T00941033
Observed Flight Rules
Dec-14 @ 12:52 UTC (18 minutes ago) Visual Flight Rules
Wind Visibility Clouds
300° at 12 knots 10 miles
  • Clear skies
Temperatures Readings
Current 9°C / 48°F
Dewpoint -3°C / 27°F
Humidity 43%
Altimeter 30.12" Hg
Pressure 1019.7 hPa
Elevation 10
METAR KHRL 141252Z 30012KT 10SM CLR 09/M03 A3012 RMK AO2 SLP197 T00941033
Observed Flight Rules
Dec-14 @ 12:52 UTC
(18 minutes ago)
VFR
Wind Visibility
300° at 12 knots 10 miles
Clouds
  • Clear skies
Temperature Dewpoint
9°C / 48°F -3°C / 27°F
Humidity Altimeter Pressure
43% 30.12" Hg 1019.7 hPa